createdAt,value
2022-11-07T00:00:39.228Z,13.61
2022-11-07T00:03:06.506Z,13.60
2022-11-07T00:05:33.464Z,13.63
2022-11-07T00:08:00.849Z,13.63
2022-11-07T00:10:28.903Z,13.62
2022-11-07T00:12:57.473Z,13.59
2022-11-07T00:15:24.816Z,13.54
2022-11-07T00:17:51.968Z,13.52
2022-11-07T00:20:19.468Z,13.52
2022-11-07T00:22:46.649Z,13.52
2022-11-07T00:25:13.505Z,13.53
2022-11-07T00:27:41.371Z,13.56
2022-11-07T00:30:09.523Z,13.60
2022-11-07T00:32:36.743Z,13.61
2022-11-07T00:35:04.082Z,13.61
2022-11-07T00:37:30.988Z,13.60
2022-11-07T00:39:58.734Z,13.58
2022-11-07T00:42:26.398Z,13.61
2022-11-07T00:44:54.401Z,13.61
2022-11-07T00:47:21.750Z,13.63
2022-11-07T00:49:48.923Z,13.60
2022-11-07T00:52:16.158Z,13.56
2022-11-07T00:54:43.219Z,13.56
2022-11-07T00:57:10.880Z,13.57
2022-11-07T00:59:38.628Z,13.60
2022-11-07T01:02:05.699Z,13.60
2022-11-07T01:04:42.582Z,13.60
2022-11-07T01:07:10.362Z,13.59
2022-11-07T01:09:38.166Z,13.55
2022-11-07T01:12:07.659Z,13.57
2022-11-07T01:14:35.499Z,13.59
2022-11-07T01:17:02.650Z,13.58
2022-11-07T01:19:29.688Z,13.59
2022-11-07T01:21:57.905Z,13.59
2022-11-07T01:24:24.784Z,13.60
2022-11-07T01:26:52.306Z,13.62
2022-11-07T01:29:20.936Z,13.65
2022-11-07T01:31:48.659Z,13.70
2022-11-07T01:34:17.449Z,13.78
2022-11-07T01:36:44.678Z,13.80
2022-11-07T01:39:11.569Z,13.79
2022-11-07T01:41:39.008Z,13.78
2022-11-07T01:44:07.105Z,13.79
2022-11-07T01:46:36.791Z,13.84
2022-11-07T01:49:13.888Z,13.85
2022-11-07T01:51:44.206Z,13.89
2022-11-07T01:54:13.658Z,13.91
2022-11-07T01:56:42.147Z,13.93
2022-11-07T01:59:11.965Z,13.95
2022-11-07T02:01:39.714Z,13.95
2022-11-07T02:04:07.079Z,13.95
2022-11-07T02:06:44.017Z,13.92
2022-11-07T02:09:11.603Z,13.90
2022-11-07T02:11:38.940Z,13.90
2022-11-07T02:14:06.737Z,13.91
2022-11-07T02:16:35.867Z,13.90
2022-11-07T02:19:07.592Z,13.91
2022-11-07T02:21:35.122Z,13.87
2022-11-07T02:24:09.493Z,13.88
2022-11-07T02:26:38.481Z,13.90
2022-11-07T02:29:07.785Z,13.89
2022-11-07T02:31:35.025Z,13.89
2022-11-07T02:34:02.014Z,13.90
2022-11-07T02:36:29.057Z,13.86
2022-11-07T02:38:59.424Z,13.87
2022-11-07T02:41:29.121Z,13.90
2022-11-07T02:44:02.380Z,13.91
2022-11-07T02:46:29.922Z,13.91
2022-11-07T02:48:59.061Z,13.93
2022-11-07T02:51:26.421Z,13.95
2022-11-07T02:53:54.096Z,13.98
2022-11-07T02:56:22.944Z,14.00
2022-11-07T02:58:50.031Z,14.01
2022-11-07T03:01:17.041Z,14.03
2022-11-07T03:03:45.336Z,14.04
2022-11-07T03:06:13.678Z,14.07
2022-11-07T03:08:40.917Z,14.09
2022-11-07T03:11:09.555Z,14.09
2022-11-07T03:13:36.752Z,14.11
2022-11-07T03:16:08.695Z,14.13
2022-11-07T03:18:36.157Z,14.14
2022-11-07T03:21:04.375Z,14.13
2022-11-07T03:23:32.768Z,14.18
2022-11-07T03:26:00.271Z,14.17
2022-11-07T03:28:28.229Z,14.18
2022-11-07T03:30:55.647Z,14.21
2022-11-07T03:33:22.834Z,14.21
2022-11-07T03:35:50.069Z,14.22
2022-11-07T03:38:17.459Z,14.18
2022-11-07T03:40:45.942Z,14.16
2022-11-07T03:43:13.493Z,14.20
2022-11-07T03:45:40.481Z,14.18
2022-11-07T03:48:08.626Z,14.18
2022-11-07T03:50:36.942Z,14.20
2022-11-07T03:53:05.080Z,14.17
2022-11-07T03:55:32.518Z,14.19
2022-11-07T03:57:59.886Z,14.21
2022-11-07T04:00:27.284Z,14.19
2022-11-07T04:02:54.258Z,14.19
2022-11-07T04:05:22.431Z,14.19
2022-11-07T04:07:49.403Z,14.19
2022-11-07T04:10:18.977Z,14.15
2022-11-07T04:12:59.096Z,14.13
2022-11-07T04:15:36.121Z,14.18
2022-11-07T04:18:05.370Z,14.18
2022-11-07T04:20:33.068Z,14.18
2022-11-07T04:23:00.862Z,14.22
2022-11-07T04:25:38.374Z,14.24
2022-11-07T04:28:05.627Z,14.23
2022-11-07T04:30:32.811Z,14.25
2022-11-07T04:33:00.826Z,14.25
2022-11-07T04:35:29.978Z,14.29
2022-11-07T04:37:58.477Z,14.33
2022-11-07T04:40:26.502Z,14.33
2022-11-07T04:42:55.021Z,14.32
2022-11-07T04:45:23.412Z,14.34
2022-11-07T04:47:51.433Z,14.38
2022-11-07T04:50:20.233Z,14.41
2022-11-07T04:52:48.860Z,14.40
2022-11-07T04:55:22.409Z,14.39
2022-11-07T04:57:50.273Z,14.41
2022-11-07T05:00:20.697Z,14.43
2022-11-07T05:02:48.143Z,14.43
2022-11-07T05:05:15.591Z,14.42
2022-11-07T05:07:43.792Z,14.43
2022-11-07T05:10:17.929Z,14.46
2022-11-07T05:12:44.932Z,14.44
2022-11-07T05:15:12.999Z,14.43
2022-11-07T05:17:41.565Z,14.40
2022-11-07T05:20:12.427Z,14.37
2022-11-07T05:22:52.349Z,14.40
2022-11-07T05:25:24.252Z,14.44
2022-11-07T05:27:56.731Z,14.46
2022-11-07T05:30:23.798Z,14.46
2022-11-07T05:32:51.407Z,14.45
2022-11-07T05:35:18.293Z,14.48
2022-11-07T05:37:45.297Z,14.49
2022-11-07T05:40:12.384Z,14.49
2022-11-07T05:42:39.319Z,14.50
2022-11-07T05:45:06.864Z,14.53
2022-11-07T05:47:33.825Z,14.53
2022-11-07T05:50:00.766Z,14.55
2022-11-07T05:52:27.823Z,14.57
2022-11-07T05:54:54.668Z,14.55
2022-11-07T05:57:21.645Z,14.57
2022-11-07T05:59:48.587Z,14.58
2022-11-07T06:02:15.695Z,14.60
2022-11-07T06:04:42.767Z,14.61
2022-11-07T06:07:09.813Z,14.60
2022-11-07T06:09:36.744Z,14.63
2022-11-07T06:12:04.266Z,14.61
2022-11-07T06:14:31.454Z,14.59
2022-11-07T06:16:58.353Z,14.59
2022-11-07T06:19:25.311Z,14.55
2022-11-07T06:21:52.164Z,14.55
2022-11-07T06:24:20.422Z,14.55
2022-11-07T06:26:47.352Z,14.56
2022-11-07T06:29:14.375Z,14.53
2022-11-07T06:31:41.310Z,14.56
2022-11-07T06:34:08.224Z,14.58
2022-11-07T06:36:35.287Z,14.57
2022-11-07T06:39:02.207Z,14.60
2022-11-07T06:41:29.145Z,14.60
2022-11-07T06:43:56.083Z,14.60
2022-11-07T06:46:23.686Z,14.57
2022-11-07T06:48:50.685Z,14.57
2022-11-07T06:51:17.824Z,14.58
2022-11-07T06:53:44.791Z,14.58
2022-11-07T06:56:14.004Z,14.57
2022-11-07T06:58:41.206Z,14.57
2022-11-07T07:01:10.182Z,14.59
2022-11-07T07:03:37.262Z,14.57
2022-11-07T07:06:05.342Z,14.57
2022-11-07T07:08:32.944Z,14.58
2022-11-07T07:11:04.766Z,14.59
2022-11-07T07:13:32.089Z,14.62
2022-11-07T07:15:59.405Z,14.63
2022-11-07T07:18:27.055Z,14.63
2022-11-07T07:20:56.333Z,14.63
2022-11-07T07:23:23.304Z,14.62
2022-11-07T07:25:50.226Z,14.65
2022-11-07T07:28:17.106Z,14.69
2022-11-07T07:30:50.303Z,14.71
2022-11-07T07:33:19.230Z,14.70
2022-11-07T07:35:46.691Z,14.71
2022-11-07T07:38:21.795Z,14.74
2022-11-07T07:40:49.425Z,14.75
2022-11-07T07:43:16.563Z,14.75
2022-11-07T07:45:43.958Z,14.84
2022-11-07T07:48:11.074Z,14.92
2022-11-07T07:50:38.114Z,14.97
2022-11-07T07:53:09.101Z,14.99
2022-11-07T07:55:36.614Z,15.01
2022-11-07T07:58:03.653Z,15.01
2022-11-07T08:00:30.648Z,15.01
2022-11-07T08:03:07.114Z,15.03
2022-11-07T08:05:34.374Z,15.06
2022-11-07T08:08:01.328Z,15.06
2022-11-07T08:10:41.522Z,15.05
2022-11-07T08:13:09.214Z,15.08
2022-11-07T08:15:36.204Z,15.09
2022-11-07T08:18:03.685Z,15.09
2022-11-07T08:20:30.815Z,15.07
2022-11-07T08:23:09.850Z,15.09
2022-11-07T08:25:40.271Z,15.13
2022-11-07T08:28:08.756Z,15.16
2022-11-07T08:30:36.288Z,15.18
2022-11-07T08:33:04.124Z,15.19
2022-11-07T08:35:31.587Z,15.23
2022-11-07T08:37:59.061Z,15.25
2022-11-07T08:40:26.347Z,15.28
2022-11-07T08:42:58.896Z,15.28
2022-11-07T08:45:25.953Z,15.31
2022-11-07T08:47:56.706Z,15.35
2022-11-07T08:50:23.680Z,15.37
2022-11-07T08:52:50.809Z,15.40
2022-11-07T08:55:17.846Z,15.41
2022-11-07T08:57:45.129Z,15.42
2022-11-07T09:00:12.565Z,15.42
2022-11-07T09:03:08.740Z,15.40
2022-11-07T09:05:54.671Z,15.45
2022-11-07T09:08:24.209Z,15.49
2022-11-07T09:10:51.278Z,15.52
2022-11-07T09:13:18.762Z,15.56
2022-11-07T09:15:50.558Z,15.55
2022-11-07T09:18:18.667Z,15.57
2022-11-07T09:20:47.426Z,15.59
2022-11-07T09:23:16.085Z,15.61
2022-11-07T09:25:43.434Z,15.64
2022-11-07T09:28:11.046Z,15.65
2022-11-07T09:30:38.107Z,15.68
2022-11-07T09:33:05.110Z,15.68
2022-11-07T09:39:03.167Z,15.71
2022-11-07T09:51:14.022Z,15.76
2022-11-07T09:53:44.826Z,15.78
2022-11-07T09:56:12.876Z,15.79
2022-11-07T09:58:44.237Z,15.79
2022-11-07T10:01:16.362Z,15.82
2022-11-07T10:04:10.223Z,15.85
2022-11-07T10:06:32.891Z,15.87
2022-11-07T10:09:18.029Z,15.88
2022-11-07T10:11:44.956Z,15.89
2022-11-07T10:14:14.438Z,15.90
2022-11-07T10:16:56.342Z,15.93
2022-11-07T10:19:30.767Z,15.93
2022-11-07T10:22:06.183Z,15.94
2022-11-07T10:24:34.392Z,15.97
2022-11-07T10:27:02.220Z,15.99
2022-11-07T10:29:32.221Z,15.98
2022-11-07T10:32:09.830Z,15.99
2022-11-07T10:34:38.604Z,16.02
2022-11-07T10:37:05.262Z,16.04
2022-11-07T10:39:32.360Z,16.02
2022-11-07T10:42:03.044Z,16.01
2022-11-07T10:44:29.798Z,16.03
2022-11-07T10:46:56.592Z,16.06
2022-11-07T10:49:28.959Z,16.08
2022-11-07T10:52:05.725Z,16.12
2022-11-07T10:54:32.460Z,16.11
2022-11-07T10:57:25.725Z,16.10
2022-11-07T10:59:52.589Z,16.12
2022-11-07T11:02:21.926Z,16.11
2022-11-07T11:04:54.297Z,16.08
2022-11-07T11:07:27.182Z,16.09
2022-11-07T11:09:56.469Z,16.05
2022-11-07T11:12:27.349Z,16.06
2022-11-07T11:15:11.159Z,16.07
2022-11-07T11:17:37.802Z,16.09
2022-11-07T11:20:05.294Z,16.06
2022-11-07T11:22:39.576Z,16.06
2022-11-07T11:25:17.500Z,16.05
2022-11-07T11:27:45.838Z,16.05
2022-11-07T11:30:15.667Z,16.08
2022-11-07T11:32:45.486Z,16.09
2022-11-07T11:35:18.161Z,16.09
2022-11-07T11:37:47.771Z,16.10
2022-11-07T11:40:19.554Z,16.15
2022-11-07T11:42:49.629Z,16.17
2022-11-07T11:45:23.974Z,16.16
2022-11-07T11:47:55.880Z,16.15
2022-11-07T11:50:27.873Z,16.19
2022-11-07T11:52:54.540Z,16.22
2022-11-07T11:55:23.989Z,16.21
2022-11-07T11:57:58.101Z,16.20
2022-11-07T12:00:24.878Z,16.20
2022-11-07T12:02:54.491Z,16.23
2022-11-07T12:05:29.742Z,16.22
2022-11-07T12:08:15.058Z,16.22
2022-11-07T12:10:46.390Z,16.21
2022-11-07T12:13:18.482Z,16.18
2022-11-07T12:15:45.614Z,16.18
2022-11-07T12:18:33.318Z,16.18
2022-11-07T12:21:12.909Z,16.16
2022-11-07T12:23:39.481Z,16.15
2022-11-07T12:26:22.251Z,16.17
2022-11-07T12:29:02.440Z,16.17
2022-11-07T12:31:50.590Z,16.20
2022-11-07T12:34:17.249Z,16.20
2022-11-07T12:36:44.137Z,16.17
2022-11-07T12:39:28.000Z,16.19
2022-11-07T12:41:58.903Z,16.19
2022-11-07T12:44:34.980Z,16.18
2022-11-07T12:47:06.427Z,16.19
2022-11-07T12:49:39.192Z,16.22
2022-11-07T12:52:05.914Z,16.22
2022-11-07T12:54:51.278Z,16.15
2022-11-07T12:57:46.974Z,16.12
2022-11-07T13:00:26.004Z,16.15
2022-11-07T13:03:11.138Z,16.14
2022-11-07T13:05:50.115Z,16.12
2022-11-07T13:08:35.334Z,16.14
2022-11-07T13:11:05.151Z,16.15
2022-11-07T13:13:40.633Z,16.12
2022-11-07T13:16:24.641Z,16.11
2022-11-07T13:18:51.558Z,16.12
2022-11-07T13:21:18.359Z,16.11
2022-11-07T13:23:45.847Z,16.09
2022-11-07T13:26:45.141Z,16.10
2022-11-07T13:29:00.704Z,16.15
2022-11-07T13:31:45.754Z,16.22
2022-11-07T13:34:24.242Z,16.25
2022-11-07T13:36:52.385Z,16.28
2022-11-07T13:39:19.452Z,16.29
2022-11-07T13:41:48.298Z,16.32
2022-11-07T13:44:22.129Z,16.33
2022-11-07T13:46:53.847Z,16.37
2022-11-07T13:49:30.441Z,16.39
2022-11-07T13:52:01.422Z,16.39
2022-11-07T13:54:31.462Z,16.42
2022-11-07T13:57:13.416Z,16.45
2022-11-07T13:59:50.414Z,16.48
2022-11-07T14:02:30.319Z,16.50
2022-11-07T14:05:15.755Z,16.52
2022-11-07T14:07:46.902Z,16.53
2022-11-07T14:10:18.354Z,16.54
2022-11-07T14:12:45.183Z,16.57
2022-11-07T14:15:16.428Z,16.57
2022-11-07T14:17:44.184Z,16.57
2022-11-07T14:20:20.241Z,16.57
2022-11-07T14:22:51.905Z,16.59
2022-11-07T14:25:23.818Z,16.59
2022-11-07T14:27:50.860Z,16.58
2022-11-07T14:30:19.132Z,16.57
2022-11-07T14:33:06.355Z,16.56
2022-11-07T14:35:34.731Z,16.57
2022-11-07T14:38:11.253Z,16.55
2022-11-07T14:40:38.408Z,16.54
2022-11-07T14:43:05.233Z,16.53
2022-11-07T14:46:10.243Z,16.53
2022-11-07T14:48:20.364Z,16.52
2022-11-07T14:50:48.076Z,16.54
2022-11-07T14:53:19.798Z,16.53
2022-11-07T14:55:49.818Z,16.53
2022-11-07T14:58:17.976Z,16.54
2022-11-07T15:00:51.534Z,16.52
2022-11-07T15:03:30.266Z,16.53
2022-11-07T15:05:57.126Z,16.53
2022-11-07T15:08:30.006Z,16.53
2022-11-07T15:11:14.903Z,16.51
2022-11-07T15:13:42.184Z,16.49
2022-11-07T15:16:16.323Z,16.49
2022-11-07T15:18:44.098Z,16.51
2022-11-07T15:21:46.722Z,16.54
2022-11-07T15:24:31.877Z,16.54
2022-11-07T15:27:06.907Z,16.52
2022-11-07T15:29:36.104Z,16.52
2022-11-07T15:32:14.490Z,16.48
2022-11-07T15:35:00.791Z,16.48
2022-11-07T15:37:29.148Z,16.49
2022-11-07T15:39:55.869Z,16.51
2022-11-07T15:42:22.459Z,16.53
2022-11-07T15:44:49.053Z,16.50
2022-11-07T15:47:20.210Z,16.48
2022-11-07T15:49:47.480Z,16.48
2022-11-07T15:52:14.314Z,16.46
2022-11-07T15:54:40.901Z,16.47
2022-11-07T15:57:08.649Z,16.46
2022-11-07T15:59:36.944Z,16.46
2022-11-07T16:02:03.911Z,16.44
2022-11-07T16:04:30.838Z,16.44
2022-11-07T16:06:57.458Z,16.45
2022-11-07T16:09:25.819Z,16.42
2022-11-07T16:11:52.439Z,16.34
2022-11-07T16:14:43.005Z,16.31
2022-11-07T16:17:06.682Z,16.29
2022-11-07T16:19:33.304Z,16.26
2022-11-07T16:22:01.323Z,16.21
2022-11-07T16:24:28.610Z,16.16
2022-11-07T16:26:57.758Z,16.15
2022-11-07T16:29:24.701Z,16.13
2022-11-07T16:31:51.299Z,16.13
2022-11-07T16:34:24.206Z,16.14
2022-11-07T16:36:50.891Z,16.14
2022-11-07T16:39:21.759Z,16.13
2022-11-07T16:41:50.639Z,16.15
2022-11-07T16:44:24.645Z,16.13
2022-11-07T16:46:54.463Z,16.13
2022-11-07T16:49:31.207Z,16.14
2022-11-07T16:51:58.375Z,16.14
2022-11-07T16:54:25.154Z,16.11
2022-11-07T16:56:53.058Z,16.07
2022-11-07T16:59:26.048Z,16.05
2022-11-07T17:01:53.339Z,16.04
2022-11-07T17:04:20.058Z,16.02
2022-11-07T17:06:47.729Z,15.99
2022-11-07T17:09:20.589Z,15.96
2022-11-07T17:11:47.383Z,15.95
2022-11-07T17:14:14.073Z,15.95
2022-11-07T17:16:42.404Z,15.93
2022-11-07T17:19:13.598Z,15.96
2022-11-07T17:21:46.617Z,15.94
2022-11-07T17:24:13.905Z,15.94
2022-11-07T17:26:40.581Z,15.93
2022-11-07T17:29:08.133Z,15.92
2022-11-07T17:31:41.445Z,15.89
2022-11-07T17:34:08.284Z,15.87
2022-11-07T17:36:38.235Z,15.86
2022-11-07T17:39:08.199Z,15.81
2022-11-07T17:41:43.809Z,15.83
2022-11-07T17:44:10.839Z,15.84
2022-11-07T17:46:40.258Z,15.86
2022-11-07T17:49:07.998Z,15.86
2022-11-07T17:51:37.436Z,15.86
2022-11-07T17:54:04.621Z,15.87
2022-11-07T17:56:32.060Z,15.89
2022-11-07T17:59:03.277Z,15.89
2022-11-07T18:01:40.978Z,15.89
2022-11-07T18:04:08.712Z,15.91
2022-11-07T18:06:36.322Z,15.91
2022-11-07T18:09:03.777Z,15.92
2022-11-07T18:11:30.762Z,15.92
2022-11-07T18:13:58.111Z,15.93
2022-11-07T18:16:26.138Z,15.92
2022-11-07T18:18:52.769Z,15.91
2022-11-07T18:21:19.625Z,15.93
2022-11-07T18:23:46.855Z,15.94
2022-11-07T18:26:16.900Z,15.96
2022-11-07T18:28:47.105Z,15.99
2022-11-07T18:31:15.196Z,15.99
2022-11-07T18:33:42.175Z,16.00
2022-11-07T18:36:10.247Z,15.99
2022-11-07T18:38:37.130Z,15.97
2022-11-07T18:41:03.715Z,15.98
2022-11-07T18:43:30.277Z,15.95
2022-11-07T18:45:57.102Z,15.96
2022-11-07T18:48:25.022Z,15.95
2022-11-07T18:50:51.767Z,15.95
2022-11-07T18:53:18.642Z,15.93
2022-11-07T18:55:45.318Z,15.92
2022-11-07T18:58:11.889Z,15.92
2022-11-07T19:00:38.694Z,15.92
2022-11-07T19:03:05.432Z,15.92
2022-11-07T19:05:32.849Z,15.90
2022-11-07T19:08:00.798Z,15.89
2022-11-07T19:10:27.386Z,15.91
2022-11-07T19:12:54.763Z,15.94
2022-11-07T19:15:25.248Z,15.97
2022-11-07T19:17:51.949Z,15.99
2022-11-07T19:20:23.827Z,15.99
2022-11-07T19:22:50.405Z,15.99
2022-11-07T19:25:19.062Z,16.00
2022-11-07T19:27:47.280Z,16.01
2022-11-07T19:30:16.213Z,16.04
2022-11-07T19:32:43.001Z,16.07
2022-11-07T19:35:09.629Z,16.10
2022-11-07T19:37:36.719Z,16.12
2022-11-07T19:40:03.438Z,16.10
2022-11-07T19:45:06.107Z,16.10
2022-11-07T19:47:32.787Z,16.13
2022-11-07T19:50:06.048Z,16.16
2022-11-07T19:52:33.667Z,16.17
2022-11-07T19:55:00.344Z,16.17
2022-11-07T19:57:27.068Z,16.19
2022-11-07T19:59:53.676Z,16.19
2022-11-07T20:02:32.695Z,16.20
2022-11-07T20:05:00.692Z,16.20
2022-11-07T20:07:27.273Z,16.22
2022-11-07T20:09:55.180Z,16.25
2022-11-07T20:12:21.793Z,16.26
2022-11-07T20:14:48.419Z,16.27
2022-11-07T20:17:15.123Z,16.32
2022-11-07T20:19:41.881Z,16.31
2022-11-07T20:22:08.536Z,16.31
2022-11-07T20:24:35.454Z,16.26
2022-11-07T20:27:02.123Z,16.26
2022-11-07T20:29:29.178Z,16.26
2022-11-07T20:31:56.622Z,16.25
2022-11-07T20:34:23.565Z,16.27
2022-11-07T20:36:53.990Z,16.30
2022-11-07T20:39:21.345Z,16.31
2022-11-07T20:41:49.150Z,16.31
2022-11-07T20:44:16.345Z,16.30
2022-11-07T20:46:44.708Z,16.33
2022-11-07T20:49:24.260Z,16.37
2022-11-07T20:51:52.070Z,16.37
2022-11-07T20:54:18.777Z,16.39
2022-11-07T20:56:45.450Z,16.42
2022-11-07T20:59:12.239Z,16.45
2022-11-07T21:01:45.909Z,16.44
2022-11-07T21:04:17.019Z,16.49
2022-11-07T21:06:43.911Z,16.54
2022-11-07T21:09:10.887Z,16.55
2022-11-07T21:11:45.733Z,16.52
2022-11-07T21:14:12.375Z,16.53
2022-11-07T21:16:38.952Z,16.54
2022-11-07T21:19:05.971Z,16.52
2022-11-07T21:21:39.247Z,16.49
2022-11-07T21:24:05.971Z,16.51
2022-11-07T21:26:36.726Z,16.53
2022-11-07T21:29:06.648Z,16.52
2022-11-07T21:31:45.286Z,16.51
2022-11-07T21:34:13.080Z,16.49
2022-11-07T21:36:39.761Z,16.51
2022-11-07T21:39:07.774Z,16.52
2022-11-07T21:41:42.896Z,16.53
2022-11-07T21:44:10.887Z,16.52
2022-11-07T21:46:37.610Z,16.53
2022-11-07T21:49:09.141Z,16.54
2022-11-07T21:51:39.676Z,16.54
2022-11-07T21:54:06.914Z,16.55
2022-11-07T21:56:35.327Z,16.54
2022-11-07T21:59:04.489Z,16.54
2022-11-07T22:01:40.915Z,16.51
2022-11-07T22:04:10.819Z,16.52
2022-11-07T22:06:39.842Z,16.53
2022-11-07T22:09:07.914Z,16.53
2022-11-07T22:11:44.791Z,16.55
2022-11-07T22:14:19.722Z,16.53
2022-11-07T22:16:47.005Z,16.53
2022-11-07T22:19:14.548Z,16.55
2022-11-07T22:21:42.130Z,16.57
2022-11-07T22:24:10.358Z,16.55
2022-11-07T22:26:37.681Z,16.55
2022-11-07T22:29:05.444Z,16.55
2022-11-07T22:31:42.841Z,16.57
2022-11-07T22:34:10.713Z,16.59
2022-11-07T22:36:38.181Z,16.59
2022-11-07T22:39:05.250Z,16.58
2022-11-07T22:41:42.982Z,16.56
2022-11-07T22:44:09.890Z,16.60
2022-11-07T22:46:36.837Z,16.62
2022-11-07T22:49:03.923Z,16.63
2022-11-07T22:51:38.357Z,16.63
2022-11-07T22:54:06.635Z,16.65
2022-11-07T22:56:35.612Z,16.66
2022-11-07T22:59:03.045Z,16.66
2022-11-07T23:01:40.218Z,16.67
2022-11-07T23:04:07.640Z,16.65
2022-11-07T23:06:35.036Z,16.64
2022-11-07T23:09:02.466Z,16.63
2022-11-07T23:11:46.485Z,16.60
2022-11-07T23:14:15.723Z,16.57
2022-11-07T23:16:48.311Z,16.57
2022-11-07T23:19:16.472Z,16.58
2022-11-07T23:21:45.762Z,16.56
2022-11-07T23:24:13.174Z,16.56
2022-11-07T23:26:40.427Z,16.55
2022-11-07T23:29:12.317Z,16.57
2022-11-07T23:31:42.999Z,16.56
2022-11-07T23:34:09.958Z,16.58
2022-11-07T23:36:36.971Z,16.58
2022-11-07T23:39:05.027Z,16.59
2022-11-07T23:41:39.390Z,16.61
2022-11-07T23:44:06.289Z,16.59
2022-11-07T23:46:51.736Z,16.59
2022-11-07T23:49:37.311Z,16.57
2022-11-07T23:52:04.977Z,16.56
2022-11-07T23:54:50.441Z,16.54
2022-11-07T23:57:17.440Z,16.53
